Déline Airport
CYWJ : now visible

Airfield :











YOU CAN JOIN US ON...

 
LOGIN :

Register | Disclaimer

   EN    FR    IT 

 









Legend :    VFR   Marginal VFR   IFR   Intensive IFR   Very Intensive IFR
Visi :
Ceiling :
>= 8 km
>= 3000ft
5 to 8 km
1000 to 3000 ft
1500m to 5 km
500 to 1000 ft
800 to 1500m
200 to 500 ft
< 800m
< 200 ft
Symbols :   Thunderstorms  Fog  Heavy snow  Heavy precipitations  Wind > 20 kt






- Airport Elevation : 703 ft
- IATA code : YWJ


CYWJ - Déline

CURRENT METAR :
  • 061900Z 29011KT 10SM BKN040 M20/M23 A2985 RMK SC7 CIG RAG SLP139

EXPIRED METARs :
  • 061800Z 28009KT 7SM OVC046 M22/M25 A2984 RMK SC8 CIG RAG SLP139
  • 061700Z 27012KT 7SM OVC055 M22/M25 A2983 RMK SC8 CIG RAG SLP135

TAF TAF CYWJ
Valid from the 06 at 18:00 until the 07 at 00:00 UTC


061738Z 0618/0624 27012KT P6SM OVC060
TEMPO 0618/0624 5SM -SN OVC040
BECMG 0619/0621 30010KT RMK NXT FCST WILL BE ISSUED AT 071515Z



MET'MAP, your aeronautical weather chart ! - Copyright ORBIFLY December 2007 - Disclaimer

ORBIFLY MET'MAP TEAM :

Programming & Development : Alexandra Zaïnal
Concept & original design : Baudouin d'Aumeries
Assistance for programming : Marc-Olivier Méhu
Technical & hardware support : Manuel Goepfert

Contact : metmap@orbifly.com




SOURCES & CREDITS :

   NOAA       Earth
Advisory